sensor_id;sensor_type;location;lat;lon;timestamp;P1;durP1;ratioP1;P2;durP2;ratioP2
32236;SDS011;18726;44.732;10.550;2022-09-14T00:02:00;9.05;;;5.20;;
32236;SDS011;18726;44.732;10.550;2022-09-14T00:05:05;6.13;;;5.53;;
32236;SDS011;18726;44.732;10.550;2022-09-14T00:08:10;6.68;;;6.10;;
32236;SDS011;18726;44.732;10.550;2022-09-14T00:11:16;5.82;;;5.22;;
32236;SDS011;18726;44.732;10.550;2022-09-14T00:14:20;6.40;;;5.80;;
32236;SDS011;18726;44.732;10.550;2022-09-14T00:17:25;7.88;;;6.30;;
32236;SDS011;18726;44.732;10.550;2022-09-14T00:20:30;6.70;;;6.15;;
32236;SDS011;18726;44.732;10.550;2022-09-14T00:23:38;7.95;;;7.15;;
32236;SDS011;18726;44.732;10.550;2022-09-14T00:26:44;7.75;;;6.95;;
32236;SDS011;18726;44.732;10.550;2022-09-14T00:29:48;8.07;;;6.60;;
32236;SDS011;18726;44.732;10.550;2022-09-14T00:32:53;7.22;;;6.63;;
32236;SDS011;18726;44.732;10.550;2022-09-14T00:36:11;7.75;;;7.15;;
32236;SDS011;18726;44.732;10.550;2022-09-14T00:39:17;5.90;;;5.40;;
32236;SDS011;18726;44.732;10.550;2022-09-14T00:42:25;7.30;;;6.38;;
32236;SDS011;18726;44.732;10.550;2022-09-14T00:45:29;7.15;;;6.53;;
32236;SDS011;18726;44.732;10.550;2022-09-14T00:48:34;9.27;;;8.32;;
32236;SDS011;18726;44.732;10.550;2022-09-14T00:51:40;6.57;;;5.97;;
32236;SDS011;18726;44.732;10.550;2022-09-14T00:54:52;13.27;;;7.95;;
32236;SDS011;18726;44.732;10.550;2022-09-14T00:58:04;7.55;;;6.85;;
32236;SDS011;18726;44.732;10.550;2022-09-14T01:01:09;7.18;;;6.57;;
32236;SDS011;18726;44.732;10.550;2022-09-14T01:04:13;8.50;;;7.75;;
32236;SDS011;18726;44.732;10.550;2022-09-14T01:20:36;8.27;;;6.72;;
32236;SDS011;18726;44.732;10.550;2022-09-14T01:27:26;7.32;;;6.65;;
32236;SDS011;18726;44.732;10.550;2022-09-14T01:30:32;13.80;;;8.40;;
32236;SDS011;18726;44.732;10.550;2022-09-14T01:38:04;8.77;;;7.28;;
32236;SDS011;18726;44.732;10.550;2022-09-14T01:41:13;9.85;;;8.90;;
32236;SDS011;18726;44.732;10.550;2022-09-14T01:44:25;9.65;;;7.53;;
32236;SDS011;18726;44.732;10.550;2022-09-14T01:48:08;8.25;;;7.45;;
32236;SDS011;18726;44.732;10.550;2022-09-14T01:51:09;7.07;;;6.38;;
32236;SDS011;18726;44.732;10.550;2022-09-14T01:57:41;8.00;;;7.18;;
32236;SDS011;18726;44.732;10.550;2022-09-14T02:00:52;6.90;;;6.20;;
32236;SDS011;18726;44.732;10.550;2022-09-14T02:04:01;7.10;;;6.45;;
32236;SDS011;18726;44.732;10.550;2022-09-14T02:07:08;8.13;;;6.80;;
32236;SDS011;18726;44.732;10.550;2022-09-14T02:10:14;9.07;;;7.90;;
32236;SDS011;18726;44.732;10.550;2022-09-14T02:13:20;8.43;;;7.60;;
32236;SDS011;18726;44.732;10.550;2022-09-14T02:16:25;10.32;;;7.22;;
32236;SDS011;18726;44.732;10.550;2022-09-14T02:19:31;8.15;;;7.22;;
32236;SDS011;18726;44.732;10.550;2022-09-14T02:22:43;7.13;;;6.38;;
32236;SDS011;18726;44.732;10.550;2022-09-14T02:25:48;8.23;;;7.47;;
32236;SDS011;18726;44.732;10.550;2022-09-14T02:28:54;10.02;;;8.02;;
32236;SDS011;18726;44.732;10.550;2022-09-14T02:32:03;7.90;;;7.10;;
32236;SDS011;18726;44.732;10.550;2022-09-14T02:35:39;7.50;;;6.85;;
32236;SDS011;18726;44.732;10.550;2022-09-14T02:38:55;7.50;;;6.85;;
32236;SDS011;18726;44.732;10.550;2022-09-14T02:52:39;7.80;;;7.10;;
32236;SDS011;18726;44.732;10.550;2022-09-14T02:56:05;7.93;;;7.13;;
32236;SDS011;18726;44.732;10.550;2022-09-14T02:59:13;9.40;;;8.50;;
32236;SDS011;18726;44.732;10.550;2022-09-14T03:02:17;9.52;;;7.78;;
32236;SDS011;18726;44.732;10.550;2022-09-14T03:05:22;7.90;;;7.30;;
32236;SDS011;18726;44.732;10.550;2022-09-14T03:08:27;8.50;;;7.72;;
32236;SDS011;18726;44.732;10.550;2022-09-14T03:11:33;9.60;;;6.80;;
32236;SDS011;18726;44.732;10.550;2022-09-14T03:14:37;8.45;;;7.75;;
32236;SDS011;18726;44.732;10.550;2022-09-14T03:17:45;7.90;;;7.20;;
32236;SDS011;18726;44.732;10.550;2022-09-14T03:20:51;8.32;;;7.63;;
32236;SDS011;18726;44.732;10.550;2022-09-14T03:23:56;9.80;;;7.75;;
32236;SDS011;18726;44.732;10.550;2022-09-14T03:27:01;7.75;;;6.95;;
32236;SDS011;18726;44.732;10.550;2022-09-14T03:30:06;11.32;;;6.93;;
32236;SDS011;18726;44.732;10.550;2022-09-14T03:33:12;6.75;;;6.15;;
32236;SDS011;18726;44.732;10.550;2022-09-14T03:36:18;9.52;;;6.82;;
32236;SDS011;18726;44.732;10.550;2022-09-14T03:39:23;7.28;;;6.57;;
32236;SDS011;18726;44.732;10.550;2022-09-14T03:42:28;7.30;;;6.70;;
32236;SDS011;18726;44.732;10.550;2022-09-14T03:45:35;6.85;;;6.30;;
32236;SDS011;18726;44.732;10.550;2022-09-14T03:48:40;8.43;;;7.32;;
32236;SDS011;18726;44.732;10.550;2022-09-14T03:51:45;8.20;;;7.38;;
32236;SDS011;18726;44.732;10.550;2022-09-14T03:54:49;7.55;;;6.85;;
32236;SDS011;18726;44.732;10.550;2022-09-14T03:57:54;8.07;;;7.22;;
32236;SDS011;18726;44.732;10.550;2022-09-14T04:01:12;10.88;;;7.78;;
32236;SDS011;18726;44.732;10.550;2022-09-14T04:04:18;8.10;;;6.72;;
32236;SDS011;18726;44.732;10.550;2022-09-14T04:07:23;7.03;;;6.45;;
32236;SDS011;18726;44.732;10.550;2022-09-14T04:10:28;6.25;;;5.75;;
32236;SDS011;18726;44.732;10.550;2022-09-14T04:13:33;7.40;;;6.68;;
32236;SDS011;18726;44.732;10.550;2022-09-14T04:16:38;7.88;;;6.65;;
32236;SDS011;18726;44.732;10.550;2022-09-14T04:19:44;8.27;;;7.47;;
32236;SDS011;18726;44.732;10.550;2022-09-14T04:22:49;8.43;;;6.00;;
32236;SDS011;18726;44.732;10.550;2022-09-14T04:25:53;7.03;;;6.22;;
32236;SDS011;18726;44.732;10.550;2022-09-14T04:28:58;8.90;;;6.32;;
32236;SDS011;18726;44.732;10.550;2022-09-14T04:37:15;6.97;;;6.13;;
32236;SDS011;18726;44.732;10.550;2022-09-14T04:40:20;6.45;;;5.95;;
32236;SDS011;18726;44.732;10.550;2022-09-14T04:43:25;8.15;;;7.35;;
32236;SDS011;18726;44.732;10.550;2022-09-14T04:46:31;6.07;;;5.53;;
32236;SDS011;18726;44.732;10.550;2022-09-14T04:49:39;9.30;;;5.55;;
32236;SDS011;18726;44.732;10.550;2022-09-14T04:52:44;7.10;;;6.50;;
32236;SDS011;18726;44.732;10.550;2022-09-14T04:55:50;8.20;;;6.00;;
32236;SDS011;18726;44.732;10.550;2022-09-14T04:58:55;8.32;;;7.57;;
32236;SDS011;18726;44.732;10.550;2022-09-14T05:02:06;8.68;;;7.32;;
32236;SDS011;18726;44.732;10.550;2022-09-14T05:05:11;8.82;;;7.40;;
32236;SDS011;18726;44.732;10.550;2022-09-14T05:08:16;8.00;;;7.22;;
32236;SDS011;18726;44.732;10.550;2022-09-14T05:11:22;8.05;;;7.25;;
32236;SDS011;18726;44.732;10.550;2022-09-14T05:14:29;7.85;;;7.10;;
32236;SDS011;18726;44.732;10.550;2022-09-14T05:17:33;6.03;;;5.53;;
32236;SDS011;18726;44.732;10.550;2022-09-14T05:20:38;7.43;;;5.68;;
32236;SDS011;18726;44.732;10.550;2022-09-14T05:23:43;8.75;;;6.20;;
32236;SDS011;18726;44.732;10.550;2022-09-14T05:26:48;7.00;;;5.40;;
32236;SDS011;18726;44.732;10.550;2022-09-14T05:29:55;6.18;;;5.68;;
32236;SDS011;18726;44.732;10.550;2022-09-14T05:33:00;8.10;;;5.60;;
32236;SDS011;18726;44.732;10.550;2022-09-14T05:36:05;5.93;;;5.43;;
32236;SDS011;18726;44.732;10.550;2022-09-14T05:39:10;6.57;;;5.80;;
32236;SDS011;18726;44.732;10.550;2022-09-14T05:42:16;5.75;;;5.25;;
32236;SDS011;18726;44.732;10.550;2022-09-14T05:45:21;7.97;;;6.50;;
32236;SDS011;18726;44.732;10.550;2022-09-14T05:48:33;9.82;;;8.25;;
32236;SDS011;18726;44.732;10.550;2022-09-14T05:54:43;8.15;;;7.45;;
32236;SDS011;18726;44.732;10.550;2022-09-14T05:57:48;9.95;;;8.95;;
32236;SDS011;18726;44.732;10.550;2022-09-14T06:00:54;13.13;;;10.00;;
32236;SDS011;18726;44.732;10.550;2022-09-14T06:04:00;10.40;;;9.40;;
32236;SDS011;18726;44.732;10.550;2022-09-14T06:07:05;11.05;;;9.32;;
32236;SDS011;18726;44.732;10.550;2022-09-14T06:10:11;10.93;;;9.00;;
32236;SDS011;18726;44.732;10.550;2022-09-14T06:13:15;12.80;;;8.73;;
32236;SDS011;18726;44.732;10.550;2022-09-14T06:16:20;11.35;;;9.63;;
32236;SDS011;18726;44.732;10.550;2022-09-14T06:19:26;11.75;;;10.45;;
32236;SDS011;18726;44.732;10.550;2022-09-14T06:22:31;7.32;;;6.60;;
32236;SDS011;18726;44.732;10.550;2022-09-14T06:25:36;7.35;;;6.68;;
32236;SDS011;18726;44.732;10.550;2022-09-14T06:28:41;6.57;;;5.97;;
32236;SDS011;18726;44.732;10.550;2022-09-14T06:31:46;7.57;;;6.68;;
32236;SDS011;18726;44.732;10.550;2022-09-14T06:34:53;13.10;;;7.30;;
32236;SDS011;18726;44.732;10.550;2022-09-14T06:37:58;14.65;;;8.23;;
32236;SDS011;18726;44.732;10.550;2022-09-14T06:41:02;7.30;;;6.45;;
32236;SDS011;18726;44.732;10.550;2022-09-14T06:44:09;6.00;;;5.32;;
32236;SDS011;18726;44.732;10.550;2022-09-14T06:47:14;7.80;;;5.03;;
32236;SDS011;18726;44.732;10.550;2022-09-14T06:50:19;10.45;;;5.05;;
32236;SDS011;18726;44.732;10.550;2022-09-14T06:53:24;7.28;;;4.85;;
32236;SDS011;18726;44.732;10.550;2022-09-14T06:56:31;5.75;;;5.05;;
32236;SDS011;18726;44.732;10.550;2022-09-14T06:59:41;4.40;;;4.00;;
32236;SDS011;18726;44.732;10.550;2022-09-14T07:02:45;5.30;;;4.57;;
32236;SDS011;18726;44.732;10.550;2022-09-14T07:05:50;10.88;;;4.85;;
32236;SDS011;18726;44.732;10.550;2022-09-14T07:08:54;14.48;;;5.72;;
32236;SDS011;18726;44.732;10.550;2022-09-14T07:12:00;5.88;;;4.82;;
32236;SDS011;18726;44.732;10.550;2022-09-14T07:15:05;12.57;;;4.75;;
32236;SDS011;18726;44.732;10.550;2022-09-14T07:18:10;6.65;;;4.55;;
32236;SDS011;18726;44.732;10.550;2022-09-14T07:21:16;7.05;;;4.53;;
32236;SDS011;18726;44.732;10.550;2022-09-14T07:24:25;5.40;;;3.80;;
32236;SDS011;18726;44.732;10.550;2022-09-14T07:27:31;7.88;;;4.00;;
32236;SDS011;18726;44.732;10.550;2022-09-14T07:30:36;5.95;;;3.40;;
32236;SDS011;18726;44.732;10.550;2022-09-14T07:33:52;9.73;;;3.88;;
32236;SDS011;18726;44.732;10.550;2022-09-14T07:36:58;6.00;;;3.65;;
32236;SDS011;18726;44.732;10.550;2022-09-14T07:40:03;9.13;;;3.17;;
32236;SDS011;18726;44.732;10.550;2022-09-14T07:43:07;4.95;;;3.28;;
32236;SDS011;18726;44.732;10.550;2022-09-14T07:46:12;3.65;;;2.78;;
32236;SDS011;18726;44.732;10.550;2022-09-14T07:49:17;6.72;;;3.80;;
32236;SDS011;18726;44.732;10.550;2022-09-14T07:52:22;6.15;;;4.22;;
32236;SDS011;18726;44.732;10.550;2022-09-14T07:55:26;7.68;;;3.70;;
32236;SDS011;18726;44.732;10.550;2022-09-14T07:58:31;6.22;;;3.65;;
32236;SDS011;18726;44.732;10.550;2022-09-14T08:01:36;6.35;;;4.75;;
32236;SDS011;18726;44.732;10.550;2022-09-14T08:04:40;7.18;;;4.50;;
32236;SDS011;18726;44.732;10.550;2022-09-14T08:07:46;7.32;;;3.70;;
32236;SDS011;18726;44.732;10.550;2022-09-14T08:10:50;8.13;;;4.85;;
32236;SDS011;18726;44.732;10.550;2022-09-14T08:13:57;11.68;;;5.05;;
32236;SDS011;18726;44.732;10.550;2022-09-14T08:17:03;15.02;;;5.15;;
32236;SDS011;18726;44.732;10.550;2022-09-14T08:20:08;12.02;;;4.38;;
32236;SDS011;18726;44.732;10.550;2022-09-14T08:23:13;13.43;;;4.28;;
32236;SDS011;18726;44.732;10.550;2022-09-14T08:26:18;7.13;;;4.20;;
32236;SDS011;18726;44.732;10.550;2022-09-14T08:29:26;12.60;;;5.43;;
32236;SDS011;18726;44.732;10.550;2022-09-14T08:32:30;6.22;;;3.90;;
32236;SDS011;18726;44.732;10.550;2022-09-14T08:35:40;6.78;;;4.30;;
32236;SDS011;18726;44.732;10.550;2022-09-14T08:38:46;8.15;;;4.18;;
32236;SDS011;18726;44.732;10.550;2022-09-14T08:41:52;4.80;;;3.42;;
32236;SDS011;18726;44.732;10.550;2022-09-14T08:45:02;6.38;;;4.75;;
32236;SDS011;18726;44.732;10.550;2022-09-14T08:48:54;7.43;;;4.53;;
32236;SDS011;18726;44.732;10.550;2022-09-14T08:51:40;4.95;;;4.45;;
32236;SDS011;18726;44.732;10.550;2022-09-14T08:54:46;8.52;;;4.07;;
32236;SDS011;18726;44.732;10.550;2022-09-14T09:08:38;9.55;;;4.60;;
32236;SDS011;18726;44.732;10.550;2022-09-14T09:11:56;7.35;;;4.95;;
32236;SDS011;18726;44.732;10.550;2022-09-14T09:19:18;6.70;;;4.63;;
32236;SDS011;18726;44.732;10.550;2022-09-14T09:22:10;6.53;;;4.18;;
32236;SDS011;18726;44.732;10.550;2022-09-14T09:25:20;6.93;;;4.70;;
32236;SDS011;18726;44.732;10.550;2022-09-14T09:28:29;7.45;;;4.03;;
32236;SDS011;18726;44.732;10.550;2022-09-14T09:31:37;7.05;;;4.35;;
32236;SDS011;18726;44.732;10.550;2022-09-14T09:35:15;13.75;;;4.50;;
32236;SDS011;18726;44.732;10.550;2022-09-14T09:38:47;7.20;;;4.15;;
32236;SDS011;18726;44.732;10.550;2022-09-14T09:42:00;6.47;;;3.33;;
32236;SDS011;18726;44.732;10.550;2022-09-14T09:45:04;6.85;;;4.13;;
32236;SDS011;18726;44.732;10.550;2022-09-14T09:48:10;8.10;;;4.50;;
32236;SDS011;18726;44.732;10.550;2022-09-14T09:51:24;4.20;;;3.80;;
32236;SDS011;18726;44.732;10.550;2022-09-14T09:54:31;9.10;;;5.00;;
32236;SDS011;18726;44.732;10.550;2022-09-14T09:57:36;6.78;;;3.45;;
32236;SDS011;18726;44.732;10.550;2022-09-14T10:00:41;6.88;;;4.28;;
32236;SDS011;18726;44.732;10.550;2022-09-14T10:07:08;6.50;;;4.07;;
32236;SDS011;18726;44.732;10.550;2022-09-14T10:10:38;12.32;;;3.92;;
32236;SDS011;18726;44.732;10.550;2022-09-14T10:13:48;6.30;;;4.07;;
32236;SDS011;18726;44.732;10.550;2022-09-14T10:16:54;5.88;;;4.18;;
32236;SDS011;18726;44.732;10.550;2022-09-14T10:20:22;6.20;;;3.45;;
32236;SDS011;18726;44.732;10.550;2022-09-14T10:23:30;5.93;;;3.75;;
32236;SDS011;18726;44.732;10.550;2022-09-14T10:26:36;6.38;;;4.20;;
32236;SDS011;18726;44.732;10.550;2022-09-14T10:29:41;7.90;;;4.00;;
32236;SDS011;18726;44.732;10.550;2022-09-14T10:37:48;9.70;;;3.90;;
32236;SDS011;18726;44.732;10.550;2022-09-14T10:51:19;10.52;;;3.45;;
32236;SDS011;18726;44.732;10.550;2022-09-14T10:57:54;5.68;;;4.00;;
32236;SDS011;18726;44.732;10.550;2022-09-14T11:05:11;4.30;;;3.47;;
32236;SDS011;18726;44.732;10.550;2022-09-14T11:08:44;6.03;;;3.08;;
32236;SDS011;18726;44.732;10.550;2022-09-14T11:11:57;8.93;;;4.10;;
32236;SDS011;18726;44.732;10.550;2022-09-14T11:18:20;4.80;;;3.40;;
32236;SDS011;18726;44.732;10.550;2022-09-14T11:21:49;6.68;;;4.18;;
32236;SDS011;18726;44.732;10.550;2022-09-14T11:25:12;14.43;;;4.30;;
32236;SDS011;18726;44.732;10.550;2022-09-14T11:28:23;5.13;;;3.72;;
32236;SDS011;18726;44.732;10.550;2022-09-14T11:31:45;6.85;;;4.15;;
32236;SDS011;18726;44.732;10.550;2022-09-14T11:38:34;6.22;;;3.53;;
32236;SDS011;18726;44.732;10.550;2022-09-14T11:45:02;10.07;;;3.50;;
32236;SDS011;18726;44.732;10.550;2022-09-14T11:48:23;6.20;;;3.72;;
32236;SDS011;18726;44.732;10.550;2022-09-14T11:51:48;7.53;;;3.55;;
32236;SDS011;18726;44.732;10.550;2022-09-14T11:55:14;7.20;;;3.45;;
32236;SDS011;18726;44.732;10.550;2022-09-14T11:58:22;6.18;;;3.45;;
32236;SDS011;18726;44.732;10.550;2022-09-14T12:01:32;7.90;;;3.47;;
32236;SDS011;18726;44.732;10.550;2022-09-14T12:05:09;6.60;;;3.60;;
32236;SDS011;18726;44.732;10.550;2022-09-14T12:08:47;6.97;;;3.67;;
32236;SDS011;18726;44.732;10.550;2022-09-14T12:11:53;4.22;;;2.75;;
32236;SDS011;18726;44.732;10.550;2022-09-14T12:15:02;7.05;;;3.35;;
32236;SDS011;18726;44.732;10.550;2022-09-14T12:18:19;10.32;;;3.55;;
32236;SDS011;18726;44.732;10.550;2022-09-14T12:21:26;7.45;;;3.35;;
32236;SDS011;18726;44.732;10.550;2022-09-14T12:24:35;7.00;;;3.10;;
32236;SDS011;18726;44.732;10.550;2022-09-14T12:27:41;5.88;;;3.33;;
32236;SDS011;18726;44.732;10.550;2022-09-14T12:34:04;4.78;;;3.67;;
32236;SDS011;18726;44.732;10.550;2022-09-14T12:37:28;6.55;;;2.72;;
32236;SDS011;18726;44.732;10.550;2022-09-14T12:40:35;4.97;;;3.63;;
32236;SDS011;18726;44.732;10.550;2022-09-14T12:46:45;7.75;;;3.70;;
32236;SDS011;18726;44.732;10.550;2022-09-14T12:49:54;5.45;;;2.90;;
32236;SDS011;18726;44.732;10.550;2022-09-14T12:53:05;4.05;;;3.13;;
32236;SDS011;18726;44.732;10.550;2022-09-14T12:57:12;6.68;;;3.80;;
32236;SDS011;18726;44.732;10.550;2022-09-14T12:59:59;9.15;;;3.83;;
32236;SDS011;18726;44.732;10.550;2022-09-14T13:06:44;6.78;;;2.90;;
32236;SDS011;18726;44.732;10.550;2022-09-14T13:09:54;4.40;;;2.43;;
32236;SDS011;18726;44.732;10.550;2022-09-14T13:13:00;3.30;;;2.40;;
32236;SDS011;18726;44.732;10.550;2022-09-14T13:16:12;5.25;;;2.95;;
32236;SDS011;18726;44.732;10.550;2022-09-14T13:19:25;3.63;;;2.58;;
32236;SDS011;18726;44.732;10.550;2022-09-14T13:22:31;4.65;;;2.63;;
32236;SDS011;18726;44.732;10.550;2022-09-14T13:25:36;8.60;;;2.92;;
32236;SDS011;18726;44.732;10.550;2022-09-14T13:28:43;2.33;;;2.13;;
32236;SDS011;18726;44.732;10.550;2022-09-14T13:36:52;8.93;;;2.40;;
32236;SDS011;18726;44.732;10.550;2022-09-14T13:40:01;9.57;;;2.92;;
32236;SDS011;18726;44.732;10.550;2022-09-14T13:43:07;6.95;;;2.50;;
32236;SDS011;18726;44.732;10.550;2022-09-14T13:46:15;5.53;;;2.55;;
32236;SDS011;18726;44.732;10.550;2022-09-14T13:49:22;5.95;;;2.80;;
32236;SDS011;18726;44.732;10.550;2022-09-14T13:52:29;6.90;;;2.95;;
32236;SDS011;18726;44.732;10.550;2022-09-14T13:58:44;6.65;;;2.55;;
32236;SDS011;18726;44.732;10.550;2022-09-14T14:01:57;9.30;;;3.03;;
32236;SDS011;18726;44.732;10.550;2022-09-14T14:05:03;4.25;;;2.95;;
32236;SDS011;18726;44.732;10.550;2022-09-14T14:08:20;3.40;;;1.90;;
32236;SDS011;18726;44.732;10.550;2022-09-14T14:11:43;4.20;;;2.78;;
32236;SDS011;18726;44.732;10.550;2022-09-14T14:14:54;5.50;;;2.40;;
32236;SDS011;18726;44.732;10.550;2022-09-14T14:18:51;2.27;;;2.03;;
32236;SDS011;18726;44.732;10.550;2022-09-14T14:21:38;6.03;;;2.17;;
32236;SDS011;18726;44.732;10.550;2022-09-14T14:24:44;6.05;;;2.25;;
32236;SDS011;18726;44.732;10.550;2022-09-14T14:27:56;10.13;;;2.25;;
32236;SDS011;18726;44.732;10.550;2022-09-14T14:31:02;5.45;;;1.90;;
32236;SDS011;18726;44.732;10.550;2022-09-14T14:34:20;9.70;;;2.28;;
32236;SDS011;18726;44.732;10.550;2022-09-14T14:37:27;7.43;;;2.10;;
32236;SDS011;18726;44.732;10.550;2022-09-14T14:40:31;8.68;;;2.85;;
32236;SDS011;18726;44.732;10.550;2022-09-14T14:43:37;8.88;;;2.58;;
32236;SDS011;18726;44.732;10.550;2022-09-14T14:46:42;7.78;;;2.35;;
32236;SDS011;18726;44.732;10.550;2022-09-14T14:49:48;7.15;;;2.00;;
32236;SDS011;18726;44.732;10.550;2022-09-14T14:52:54;3.78;;;2.25;;
32236;SDS011;18726;44.732;10.550;2022-09-14T14:55:59;3.83;;;2.10;;
32236;SDS011;18726;44.732;10.550;2022-09-14T15:02:28;11.32;;;2.25;;
32236;SDS011;18726;44.732;10.550;2022-09-14T15:05:33;6.20;;;2.25;;
32236;SDS011;18726;44.732;10.550;2022-09-14T15:08:42;3.58;;;1.90;;
32236;SDS011;18726;44.732;10.550;2022-09-14T15:11:47;7.85;;;2.67;;
32236;SDS011;18726;44.732;10.550;2022-09-14T15:14:53;8.73;;;2.20;;
32236;SDS011;18726;44.732;10.550;2022-09-14T15:17:59;12.07;;;2.47;;
32236;SDS011;18726;44.732;10.550;2022-09-14T15:21:04;8.13;;;2.40;;
32236;SDS011;18726;44.732;10.550;2022-09-14T15:24:09;12.75;;;2.80;;
32236;SDS011;18726;44.732;10.550;2022-09-14T15:27:15;6.93;;;2.83;;
32236;SDS011;18726;44.732;10.550;2022-09-14T15:30:21;190.82;;;23.17;;
32236;SDS011;18726;44.732;10.550;2022-09-14T15:33:27;9.55;;;3.55;;
32236;SDS011;18726;44.732;10.550;2022-09-14T15:36:48;11.15;;;3.92;;
32236;SDS011;18726;44.732;10.550;2022-09-14T15:39:55;16.67;;;2.80;;
32236;SDS011;18726;44.732;10.550;2022-09-14T15:43:01;15.82;;;3.63;;
32236;SDS011;18726;44.732;10.550;2022-09-14T15:46:07;10.07;;;2.83;;
32236;SDS011;18726;44.732;10.550;2022-09-14T15:49:13;6.65;;;2.33;;
32236;SDS011;18726;44.732;10.550;2022-09-14T15:52:23;4.70;;;2.30;;
32236;SDS011;18726;44.732;10.550;2022-09-14T15:55:28;5.93;;;2.30;;
32236;SDS011;18726;44.732;10.550;2022-09-14T15:58:33;3.17;;;2.15;;
32236;SDS011;18726;44.732;10.550;2022-09-14T16:01:38;8.20;;;3.22;;
32236;SDS011;18726;44.732;10.550;2022-09-14T16:04:43;5.30;;;2.38;;
32236;SDS011;18726;44.732;10.550;2022-09-14T16:07:47;9.65;;;2.60;;
32236;SDS011;18726;44.732;10.550;2022-09-14T16:11:00;7.20;;;2.40;;
32236;SDS011;18726;44.732;10.550;2022-09-14T16:14:06;5.90;;;2.25;;
32236;SDS011;18726;44.732;10.550;2022-09-14T16:17:13;5.32;;;2.05;;
32236;SDS011;18726;44.732;10.550;2022-09-14T16:20:19;6.05;;;2.08;;
32236;SDS011;18726;44.732;10.550;2022-09-14T16:23:25;5.28;;;2.28;;
32236;SDS011;18726;44.732;10.550;2022-09-14T16:26:31;4.57;;;2.47;;
32236;SDS011;18726;44.732;10.550;2022-09-14T16:29:39;6.03;;;2.08;;
32236;SDS011;18726;44.732;10.550;2022-09-14T16:37:44;5.05;;;2.10;;
32236;SDS011;18726;44.732;10.550;2022-09-14T16:40:48;4.72;;;2.15;;
32236;SDS011;18726;44.732;10.550;2022-09-14T16:43:59;4.15;;;2.05;;
32236;SDS011;18726;44.732;10.550;2022-09-14T16:47:05;5.68;;;2.00;;
32236;SDS011;18726;44.732;10.550;2022-09-14T16:50:09;4.05;;;2.08;;
32236;SDS011;18726;44.732;10.550;2022-09-14T16:53:14;7.18;;;2.45;;
32236;SDS011;18726;44.732;10.550;2022-09-14T16:56:19;4.50;;;2.28;;
32236;SDS011;18726;44.732;10.550;2022-09-14T16:59:26;8.05;;;2.38;;
32236;SDS011;18726;44.732;10.550;2022-09-14T17:02:31;5.22;;;2.08;;
32236;SDS011;18726;44.732;10.550;2022-09-14T17:05:36;4.60;;;2.50;;
32236;SDS011;18726;44.732;10.550;2022-09-14T17:08:41;3.45;;;2.10;;
32236;SDS011;18726;44.732;10.550;2022-09-14T17:11:47;4.03;;;2.25;;
32236;SDS011;18726;44.732;10.550;2022-09-14T17:14:52;7.65;;;1.92;;
32236;SDS011;18726;44.732;10.550;2022-09-14T17:17:56;11.23;;;2.83;;
32236;SDS011;18726;44.732;10.550;2022-09-14T17:21:02;7.35;;;2.05;;
32236;SDS011;18726;44.732;10.550;2022-09-14T17:24:09;6.32;;;2.60;;
32236;SDS011;18726;44.732;10.550;2022-09-14T17:27:15;8.45;;;2.33;;
32236;SDS011;18726;44.732;10.550;2022-09-14T17:30:21;8.52;;;2.13;;
32236;SDS011;18726;44.732;10.550;2022-09-14T17:33:26;6.53;;;2.28;;
32236;SDS011;18726;44.732;10.550;2022-09-14T17:36:32;5.88;;;2.20;;
32236;SDS011;18726;44.732;10.550;2022-09-14T17:39:36;7.90;;;2.30;;
32236;SDS011;18726;44.732;10.550;2022-09-14T17:42:41;5.93;;;2.25;;
32236;SDS011;18726;44.732;10.550;2022-09-14T17:45:53;8.38;;;2.50;;
32236;SDS011;18726;44.732;10.550;2022-09-14T17:48:59;18.83;;;2.97;;
32236;SDS011;18726;44.732;10.550;2022-09-14T17:52:07;7.13;;;2.30;;
32236;SDS011;18726;44.732;10.550;2022-09-14T17:55:12;8.48;;;3.40;;
32236;SDS011;18726;44.732;10.550;2022-09-14T17:58:17;12.88;;;2.30;;
32236;SDS011;18726;44.732;10.550;2022-09-14T18:01:22;6.65;;;2.50;;
32236;SDS011;18726;44.732;10.550;2022-09-14T18:04:26;4.85;;;2.17;;
32236;SDS011;18726;44.732;10.550;2022-09-14T18:07:30;8.60;;;2.85;;
32236;SDS011;18726;44.732;10.550;2022-09-14T18:10:35;9.85;;;3.58;;
32236;SDS011;18726;44.732;10.550;2022-09-14T18:13:41;11.40;;;3.78;;
32236;SDS011;18726;44.732;10.550;2022-09-14T18:16:47;9.80;;;3.47;;
32236;SDS011;18726;44.732;10.550;2022-09-14T18:19:52;16.90;;;3.58;;
32236;SDS011;18726;44.732;10.550;2022-09-14T18:23:01;6.97;;;3.88;;
32236;SDS011;18726;44.732;10.550;2022-09-14T18:26:05;8.60;;;3.13;;
32236;SDS011;18726;44.732;10.550;2022-09-14T18:29:13;18.13;;;3.67;;
32236;SDS011;18726;44.732;10.550;2022-09-14T18:32:21;8.57;;;2.83;;
32236;SDS011;18726;44.732;10.550;2022-09-14T18:35:25;8.73;;;3.72;;
32236;SDS011;18726;44.732;10.550;2022-09-14T18:38:31;14.30;;;2.92;;
32236;SDS011;18726;44.732;10.550;2022-09-14T18:41:37;10.57;;;2.95;;
32236;SDS011;18726;44.732;10.550;2022-09-14T18:44:43;8.35;;;3.13;;
32236;SDS011;18726;44.732;10.550;2022-09-14T18:47:48;12.90;;;3.55;;
32236;SDS011;18726;44.732;10.550;2022-09-14T18:50:53;12.95;;;3.75;;
32236;SDS011;18726;44.732;10.550;2022-09-14T18:54:02;18.38;;;3.83;;
32236;SDS011;18726;44.732;10.550;2022-09-14T18:57:08;11.32;;;3.35;;
32236;SDS011;18726;44.732;10.550;2022-09-14T19:00:15;13.52;;;3.78;;
32236;SDS011;18726;44.732;10.550;2022-09-14T19:03:20;8.30;;;3.20;;
32236;SDS011;18726;44.732;10.550;2022-09-14T19:06:26;7.38;;;3.25;;
32236;SDS011;18726;44.732;10.550;2022-09-14T19:09:33;8.95;;;2.65;;
32236;SDS011;18726;44.732;10.550;2022-09-14T19:12:38;10.60;;;3.25;;
32236;SDS011;18726;44.732;10.550;2022-09-14T19:15:44;11.07;;;2.55;;
32236;SDS011;18726;44.732;10.550;2022-09-14T19:18:50;9.45;;;2.63;;
32236;SDS011;18726;44.732;10.550;2022-09-14T19:21:57;5.97;;;2.70;;
32236;SDS011;18726;44.732;10.550;2022-09-14T19:25:03;8.75;;;3.50;;
32236;SDS011;18726;44.732;10.550;2022-09-14T19:28:11;8.75;;;3.67;;
32236;SDS011;18726;44.732;10.550;2022-09-14T19:36:18;7.47;;;2.63;;
32236;SDS011;18726;44.732;10.550;2022-09-14T19:39:24;10.15;;;3.10;;
32236;SDS011;18726;44.732;10.550;2022-09-14T19:42:28;8.88;;;3.03;;
32236;SDS011;18726;44.732;10.550;2022-09-14T19:45:34;6.80;;;2.65;;
32236;SDS011;18726;44.732;10.550;2022-09-14T19:48:39;9.05;;;2.42;;
32236;SDS011;18726;44.732;10.550;2022-09-14T19:51:45;6.15;;;3.17;;
32236;SDS011;18726;44.732;10.550;2022-09-14T19:54:50;10.65;;;3.50;;
32236;SDS011;18726;44.732;10.550;2022-09-14T19:57:56;12.55;;;4.15;;
32236;SDS011;18726;44.732;10.550;2022-09-14T20:01:00;5.90;;;2.95;;
32236;SDS011;18726;44.732;10.550;2022-09-14T20:04:06;7.78;;;2.85;;
32236;SDS011;18726;44.732;10.550;2022-09-14T20:07:13;8.48;;;2.78;;
32236;SDS011;18726;44.732;10.550;2022-09-14T20:10:19;9.20;;;2.85;;
32236;SDS011;18726;44.732;10.550;2022-09-14T20:13:24;15.02;;;3.30;;
32236;SDS011;18726;44.732;10.550;2022-09-14T20:16:31;12.52;;;3.03;;
32236;SDS011;18726;44.732;10.550;2022-09-14T20:19:38;13.77;;;2.80;;
32236;SDS011;18726;44.732;10.550;2022-09-14T20:22:43;11.32;;;3.70;;
32236;SDS011;18726;44.732;10.550;2022-09-14T20:25:49;7.25;;;2.92;;
32236;SDS011;18726;44.732;10.550;2022-09-14T20:28:56;12.27;;;3.03;;
32236;SDS011;18726;44.732;10.550;2022-09-14T20:32:05;17.48;;;3.33;;
32236;SDS011;18726;44.732;10.550;2022-09-14T20:35:09;8.80;;;3.05;;
32236;SDS011;18726;44.732;10.550;2022-09-14T20:38:15;11.20;;;3.60;;